sensor_id;sensor_type;location;lat;lon;timestamp;P1;durP1;ratioP1;P2;durP2;ratioP2
69203;SDS011;56317;27.658;85.326;2023-09-30T00:01:46;41.75;;;19.35;;
69203;SDS011;56317;27.658;85.326;2023-09-30T00:04:15;42.17;;;19.95;;
69203;SDS011;56317;27.658;85.326;2023-09-30T00:06:42;38.53;;;17.60;;
69203;SDS011;56317;27.658;85.326;2023-09-30T00:09:09;39.95;;;18.40;;
69203;SDS011;56317;27.658;85.326;2023-09-30T00:11:37;38.17;;;17.58;;
69203;SDS011;56317;27.658;85.326;2023-09-30T00:14:04;38.42;;;16.52;;
69203;SDS011;56317;27.658;85.326;2023-09-30T00:16:31;42.17;;;18.73;;
69203;SDS011;56317;27.658;85.326;2023-09-30T00:18:58;40.22;;;18.10;;
69203;SDS011;56317;27.658;85.326;2023-09-30T00:21:27;39.33;;;18.50;;
69203;SDS011;56317;27.658;85.326;2023-09-30T00:23:54;36.72;;;18.50;;
69203;SDS011;56317;27.658;85.326;2023-09-30T00:26:22;33.33;;;17.73;;
69203;SDS011;56317;27.658;85.326;2023-09-30T00:28:49;40.13;;;18.25;;
69203;SDS011;56317;27.658;85.326;2023-09-30T00:31:16;35.28;;;17.02;;
69203;SDS011;56317;27.658;85.326;2023-09-30T00:33:43;36.22;;;16.55;;
69203;SDS011;56317;27.658;85.326;2023-09-30T00:36:10;31.50;;;16.60;;
69203;SDS011;56317;27.658;85.326;2023-09-30T00:38:37;32.42;;;16.95;;
69203;SDS011;56317;27.658;85.326;2023-09-30T00:41:05;32.10;;;16.13;;
69203;SDS011;56317;27.658;85.326;2023-09-30T00:43:33;32.45;;;16.55;;
69203;SDS011;56317;27.658;85.326;2023-09-30T00:48:33;41.42;;;16.08;;
69203;SDS011;56317;27.658;85.326;2023-09-30T00:51:00;39.10;;;17.90;;
69203;SDS011;56317;27.658;85.326;2023-09-30T00:53:28;31.02;;;15.85;;
69203;SDS011;56317;27.658;85.326;2023-09-30T00:55:56;33.47;;;15.82;;
69203;SDS011;56317;27.658;85.326;2023-09-30T00:58:25;33.13;;;14.52;;
69203;SDS011;56317;27.658;85.326;2023-09-30T01:00:54;37.55;;;15.52;;
69203;SDS011;56317;27.658;85.326;2023-09-30T01:03:23;40.38;;;16.55;;
69203;SDS011;56317;27.658;85.326;2023-09-30T01:05:50;36.72;;;15.95;;
69203;SDS011;56317;27.658;85.326;2023-09-30T01:08:17;30.77;;;16.80;;
69203;SDS011;56317;27.658;85.326;2023-09-30T01:10:45;33.17;;;16.63;;
69203;SDS011;56317;27.658;85.326;2023-09-30T01:13:13;35.13;;;17.58;;
69203;SDS011;56317;27.658;85.326;2023-09-30T01:15:40;39.65;;;18.27;;
69203;SDS011;56317;27.658;85.326;2023-09-30T01:18:07;39.65;;;16.05;;
69203;SDS011;56317;27.658;85.326;2023-09-30T01:20:34;34.30;;;15.27;;
69203;SDS011;56317;27.658;85.326;2023-09-30T01:23:01;30.98;;;15.93;;
69203;SDS011;56317;27.658;85.326;2023-09-30T01:25:29;29.58;;;15.23;;
69203;SDS011;56317;27.658;85.326;2023-09-30T01:27:58;28.17;;;15.88;;
69203;SDS011;56317;27.658;85.326;2023-09-30T01:30:32;31.73;;;16.33;;
69203;SDS011;56317;27.658;85.326;2023-09-30T01:32:59;31.48;;;16.02;;
69203;SDS011;56317;27.658;85.326;2023-09-30T01:35:26;32.63;;;16.10;;
69203;SDS011;56317;27.658;85.326;2023-09-30T01:37:53;30.70;;;14.98;;
69203;SDS011;56317;27.658;85.326;2023-09-30T01:40:20;32.47;;;16.00;;
69203;SDS011;56317;27.658;85.326;2023-09-30T01:42:47;31.20;;;16.30;;
69203;SDS011;56317;27.658;85.326;2023-09-30T01:45:15;29.83;;;15.30;;
69203;SDS011;56317;27.658;85.326;2023-09-30T01:47:42;27.90;;;15.45;;
69203;SDS011;56317;27.658;85.326;2023-09-30T01:50:09;28.85;;;16.23;;
69203;SDS011;56317;27.658;85.326;2023-09-30T01:52:36;29.23;;;15.15;;
69203;SDS011;56317;27.658;85.326;2023-09-30T01:55:03;31.10;;;15.93;;
69203;SDS011;56317;27.658;85.326;2023-09-30T01:57:30;35.72;;;15.88;;
69203;SDS011;56317;27.658;85.326;2023-09-30T01:59:58;26.92;;;15.77;;
69203;SDS011;56317;27.658;85.326;2023-09-30T02:02:25;37.55;;;15.18;;
69203;SDS011;56317;27.658;85.326;2023-09-30T02:04:52;29.90;;;14.70;;
69203;SDS011;56317;27.658;85.326;2023-09-30T02:07:19;33.10;;;14.07;;
69203;SDS011;56317;27.658;85.326;2023-09-30T02:09:46;25.70;;;12.90;;
69203;SDS011;56317;27.658;85.326;2023-09-30T02:12:14;27.80;;;13.45;;
69203;SDS011;56317;27.658;85.326;2023-09-30T02:14:42;27.48;;;15.20;;
69203;SDS011;56317;27.658;85.326;2023-09-30T02:17:09;27.33;;;15.20;;
69203;SDS011;56317;27.658;85.326;2023-09-30T02:19:37;29.88;;;14.80;;
69203;SDS011;56317;27.658;85.326;2023-09-30T02:22:04;27.90;;;15.73;;
69203;SDS011;56317;27.658;85.326;2023-09-30T02:24:31;29.65;;;15.50;;
69203;SDS011;56317;27.658;85.326;2023-09-30T02:26:58;31.95;;;15.35;;
69203;SDS011;56317;27.658;85.326;2023-09-30T02:29:25;26.40;;;13.27;;
69203;SDS011;56317;27.658;85.326;2023-09-30T02:31:53;26.23;;;13.30;;
69203;SDS011;56317;27.658;85.326;2023-09-30T02:34:20;28.98;;;13.82;;
69203;SDS011;56317;27.658;85.326;2023-09-30T02:36:47;27.10;;;14.38;;
69203;SDS011;56317;27.658;85.326;2023-09-30T02:39:15;31.20;;;15.18;;
69203;SDS011;56317;27.658;85.326;2023-09-30T02:41:42;32.95;;;15.27;;
69203;SDS011;56317;27.658;85.326;2023-09-30T02:44:09;34.28;;;17.88;;
69203;SDS011;56317;27.658;85.326;2023-09-30T02:46:37;41.13;;;18.65;;
69203;SDS011;56317;27.658;85.326;2023-09-30T02:49:08;37.45;;;19.17;;
69203;SDS011;56317;27.658;85.326;2023-09-30T02:51:35;36.10;;;20.33;;
69203;SDS011;56317;27.658;85.326;2023-09-30T02:54:02;37.22;;;17.73;;
69203;SDS011;56317;27.658;85.326;2023-09-30T02:56:31;35.80;;;19.77;;
69203;SDS011;56317;27.658;85.326;2023-09-30T02:58:58;37.28;;;17.02;;
69203;SDS011;56317;27.658;85.326;2023-09-30T03:01:25;33.50;;;19.52;;
69203;SDS011;56317;27.658;85.326;2023-09-30T03:03:52;41.17;;;20.45;;
69203;SDS011;56317;27.658;85.326;2023-09-30T03:06:20;38.25;;;19.52;;
69203;SDS011;56317;27.658;85.326;2023-09-30T03:08:47;38.15;;;19.38;;
69203;SDS011;56317;27.658;85.326;2023-09-30T03:11:14;37.70;;;19.35;;
69203;SDS011;56317;27.658;85.326;2023-09-30T03:13:43;35.33;;;18.83;;
69203;SDS011;56317;27.658;85.326;2023-09-30T03:16:10;43.33;;;20.45;;
69203;SDS011;56317;27.658;85.326;2023-09-30T03:18:37;42.63;;;22.17;;
69203;SDS011;56317;27.658;85.326;2023-09-30T03:21:12;48.60;;;22.20;;
69203;SDS011;56317;27.658;85.326;2023-09-30T03:23:40;36.58;;;20.77;;
69203;SDS011;56317;27.658;85.326;2023-09-30T03:26:07;41.05;;;21.40;;
69203;SDS011;56317;27.658;85.326;2023-09-30T03:28:36;42.65;;;21.38;;
69203;SDS011;56317;27.658;85.326;2023-09-30T03:31:04;37.63;;;20.48;;
69203;SDS011;56317;27.658;85.326;2023-09-30T03:33:34;38.25;;;21.25;;
69203;SDS011;56317;27.658;85.326;2023-09-30T03:36:03;41.70;;;22.07;;
69203;SDS011;56317;27.658;85.326;2023-09-30T03:38:30;42.17;;;21.77;;
69203;SDS011;56317;27.658;85.326;2023-09-30T03:40:58;40.30;;;20.30;;
69203;SDS011;56317;27.658;85.326;2023-09-30T03:43:26;41.10;;;21.50;;
69203;SDS011;56317;27.658;85.326;2023-09-30T03:45:53;41.53;;;21.13;;
69203;SDS011;56317;27.658;85.326;2023-09-30T03:48:22;40.13;;;22.15;;
69203;SDS011;56317;27.658;85.326;2023-09-30T03:50:49;47.17;;;22.45;;
69203;SDS011;56317;27.658;85.326;2023-09-30T03:53:18;41.45;;;21.48;;
69203;SDS011;56317;27.658;85.326;2023-09-30T03:55:45;39.72;;;21.50;;
69203;SDS011;56317;27.658;85.326;2023-09-30T03:58:12;37.25;;;18.33;;
69203;SDS011;56317;27.658;85.326;2023-09-30T04:00:40;33.38;;;17.45;;
69203;SDS011;56317;27.658;85.326;2023-09-30T04:03:08;32.88;;;17.45;;
69203;SDS011;56317;27.658;85.326;2023-09-30T04:05:35;33.22;;;16.25;;
69203;SDS011;56317;27.658;85.326;2023-09-30T04:08:02;26.63;;;13.68;;
69203;SDS011;56317;27.658;85.326;2023-09-30T04:10:30;33.90;;;15.05;;
69203;SDS011;56317;27.658;85.326;2023-09-30T04:12:57;27.80;;;14.43;;
69203;SDS011;56317;27.658;85.326;2023-09-30T04:15:24;26.40;;;12.52;;
69203;SDS011;56317;27.658;85.326;2023-09-30T04:17:51;23.48;;;13.57;;
69203;SDS011;56317;27.658;85.326;2023-09-30T04:20:18;32.28;;;14.88;;
69203;SDS011;56317;27.658;85.326;2023-09-30T04:22:52;29.17;;;14.77;;
69203;SDS011;56317;27.658;85.326;2023-09-30T04:25:22;28.30;;;14.27;;
69203;SDS011;56317;27.658;85.326;2023-09-30T04:27:50;28.02;;;14.85;;
69203;SDS011;56317;27.658;85.326;2023-09-30T04:30:18;25.85;;;13.02;;
69203;SDS011;56317;27.658;85.326;2023-09-30T04:32:47;23.80;;;13.00;;
69203;SDS011;56317;27.658;85.326;2023-09-30T04:35:14;26.08;;;12.90;;
69203;SDS011;56317;27.658;85.326;2023-09-30T04:37:43;23.35;;;11.82;;
69203;SDS011;56317;27.658;85.326;2023-09-30T04:40:11;27.27;;;13.05;;
69203;SDS011;56317;27.658;85.326;2023-09-30T04:42:41;24.85;;;14.10;;
69203;SDS011;56317;27.658;85.326;2023-09-30T04:45:10;25.30;;;12.10;;
69203;SDS011;56317;27.658;85.326;2023-09-30T04:47:38;24.42;;;12.80;;
69203;SDS011;56317;27.658;85.326;2023-09-30T04:50:06;22.23;;;11.88;;
69203;SDS011;56317;27.658;85.326;2023-09-30T04:52:34;21.98;;;11.80;;
69203;SDS011;56317;27.658;85.326;2023-09-30T04:55:01;23.73;;;12.13;;
69203;SDS011;56317;27.658;85.326;2023-09-30T04:57:29;25.42;;;10.93;;
69203;SDS011;56317;27.658;85.326;2023-09-30T04:59:57;22.58;;;12.55;;
69203;SDS011;56317;27.658;85.326;2023-09-30T05:02:24;30.20;;;15.48;;
69203;SDS011;56317;27.658;85.326;2023-09-30T05:04:53;24.80;;;15.20;;
69203;SDS011;56317;27.658;85.326;2023-09-30T05:07:20;30.13;;;17.48;;
69203;SDS011;56317;27.658;85.326;2023-09-30T05:09:47;29.70;;;17.65;;
69203;SDS011;56317;27.658;85.326;2023-09-30T05:12:15;27.70;;;16.15;;
69203;SDS011;56317;27.658;85.326;2023-09-30T05:14:42;28.50;;;14.15;;
69203;SDS011;56317;27.658;85.326;2023-09-30T05:17:09;27.98;;;15.98;;
69203;SDS011;56317;27.658;85.326;2023-09-30T05:19:36;30.75;;;17.25;;
69203;SDS011;56317;27.658;85.326;2023-09-30T05:22:03;36.80;;;17.15;;
69203;SDS011;56317;27.658;85.326;2023-09-30T05:24:30;30.95;;;16.15;;
69203;SDS011;56317;27.658;85.326;2023-09-30T05:26:58;25.20;;;14.52;;
69203;SDS011;56317;27.658;85.326;2023-09-30T05:29:25;23.25;;;12.65;;
69203;SDS011;56317;27.658;85.326;2023-09-30T05:31:52;24.70;;;12.45;;
69203;SDS011;56317;27.658;85.326;2023-09-30T05:34:20;27.58;;;14.40;;
69203;SDS011;56317;27.658;85.326;2023-09-30T05:36:47;26.65;;;15.35;;
69203;SDS011;56317;27.658;85.326;2023-09-30T05:39:14;20.50;;;12.70;;
69203;SDS011;56317;27.658;85.326;2023-09-30T05:41:46;17.95;;;9.95;;
69203;SDS011;56317;27.658;85.326;2023-09-30T05:44:13;19.02;;;10.30;;
69203;SDS011;56317;27.658;85.326;2023-09-30T05:46:41;15.27;;;9.55;;
69203;SDS011;56317;27.658;85.326;2023-09-30T05:49:11;13.52;;;7.22;;
69203;SDS011;56317;27.658;85.326;2023-09-30T05:51:39;16.33;;;8.02;;
69203;SDS011;56317;27.658;85.326;2023-09-30T05:54:07;11.75;;;7.43;;
69203;SDS011;56317;27.658;85.326;2023-09-30T05:56:38;13.93;;;6.75;;
69203;SDS011;56317;27.658;85.326;2023-09-30T05:59:08;16.75;;;7.65;;
69203;SDS011;56317;27.658;85.326;2023-09-30T06:01:36;16.27;;;7.32;;
69203;SDS011;56317;27.658;85.326;2023-09-30T06:04:04;16.05;;;7.53;;
69203;SDS011;56317;27.658;85.326;2023-09-30T06:06:32;14.07;;;7.70;;
69203;SDS011;56317;27.658;85.326;2023-09-30T06:08:59;12.95;;;7.47;;
69203;SDS011;56317;27.658;85.326;2023-09-30T06:11:26;14.52;;;7.35;;
69203;SDS011;56317;27.658;85.326;2023-09-30T06:13:57;11.10;;;6.60;;
69203;SDS011;56317;27.658;85.326;2023-09-30T06:16:24;14.07;;;8.25;;
69203;SDS011;56317;27.658;85.326;2023-09-30T06:18:52;13.55;;;7.65;;
69203;SDS011;56317;27.658;85.326;2023-09-30T06:21:20;15.23;;;8.30;;
69203;SDS011;56317;27.658;85.326;2023-09-30T06:23:48;12.30;;;7.05;;
69203;SDS011;56317;27.658;85.326;2023-09-30T06:26:17;14.20;;;6.38;;
69203;SDS011;56317;27.658;85.326;2023-09-30T06:28:46;13.52;;;7.45;;
69203;SDS011;56317;27.658;85.326;2023-09-30T06:31:13;16.52;;;9.18;;
69203;SDS011;56317;27.658;85.326;2023-09-30T06:33:41;16.92;;;9.57;;
69203;SDS011;56317;27.658;85.326;2023-09-30T06:36:09;18.10;;;9.30;;
69203;SDS011;56317;27.658;85.326;2023-09-30T06:38:40;13.98;;;8.40;;
69203;SDS011;56317;27.658;85.326;2023-09-30T06:41:08;17.33;;;8.30;;
69203;SDS011;56317;27.658;85.326;2023-09-30T06:43:35;16.40;;;7.70;;
69203;SDS011;56317;27.658;85.326;2023-09-30T06:46:08;12.45;;;7.55;;
69203;SDS011;56317;27.658;85.326;2023-09-30T06:48:36;13.10;;;7.82;;
69203;SDS011;56317;27.658;85.326;2023-09-30T06:51:05;11.55;;;6.47;;
69203;SDS011;56317;27.658;85.326;2023-09-30T06:53:33;10.55;;;6.28;;
69203;SDS011;56317;27.658;85.326;2023-09-30T06:56:04;13.38;;;6.70;;
69203;SDS011;56317;27.658;85.326;2023-09-30T06:58:31;11.55;;;7.15;;
69203;SDS011;56317;27.658;85.326;2023-09-30T07:00:59;13.90;;;7.18;;
69203;SDS011;56317;27.658;85.326;2023-09-30T07:03:27;12.50;;;7.88;;
69203;SDS011;56317;27.658;85.326;2023-09-30T07:05:56;13.48;;;7.85;;
69203;SDS011;56317;27.658;85.326;2023-09-30T07:08:32;14.45;;;7.68;;
69203;SDS011;56317;27.658;85.326;2023-09-30T07:11:01;20.15;;;9.45;;
69203;SDS011;56317;27.658;85.326;2023-09-30T07:13:30;20.02;;;9.10;;
69203;SDS011;56317;27.658;85.326;2023-09-30T07:16:02;14.50;;;8.52;;
69203;SDS011;56317;27.658;85.326;2023-09-30T07:18:29;12.82;;;8.48;;
69203;SDS011;56317;27.658;85.326;2023-09-30T07:20:58;12.77;;;7.03;;
69203;SDS011;56317;27.658;85.326;2023-09-30T07:23:30;17.27;;;8.60;;
69203;SDS011;56317;27.658;85.326;2023-09-30T07:25:57;14.27;;;7.40;;
69203;SDS011;56317;27.658;85.326;2023-09-30T07:28:31;13.43;;;6.75;;
69203;SDS011;56317;27.658;85.326;2023-09-30T07:31:00;13.77;;;6.18;;
69203;SDS011;56317;27.658;85.326;2023-09-30T07:33:27;11.88;;;4.95;;
69203;SDS011;56317;27.658;85.326;2023-09-30T07:35:55;14.25;;;6.55;;
69203;SDS011;56317;27.658;85.326;2023-09-30T07:38:22;14.13;;;6.65;;
69203;SDS011;56317;27.658;85.326;2023-09-30T07:40:49;13.55;;;6.93;;
69203;SDS011;56317;27.658;85.326;2023-09-30T07:43:16;16.05;;;7.38;;
69203;SDS011;56317;27.658;85.326;2023-09-30T07:45:45;14.45;;;7.05;;
69203;SDS011;56317;27.658;85.326;2023-09-30T07:48:13;13.70;;;6.97;;
69203;SDS011;56317;27.658;85.326;2023-09-30T07:50:40;16.92;;;7.60;;
69203;SDS011;56317;27.658;85.326;2023-09-30T07:53:08;13.07;;;5.80;;
69203;SDS011;56317;27.658;85.326;2023-09-30T07:55:37;11.68;;;5.60;;
69203;SDS011;56317;27.658;85.326;2023-09-30T07:58:05;12.20;;;5.05;;
69203;SDS011;56317;27.658;85.326;2023-09-30T08:00:36;14.15;;;5.35;;
69203;SDS011;56317;27.658;85.326;2023-09-30T08:03:04;15.38;;;6.10;;
69203;SDS011;56317;27.658;85.326;2023-09-30T08:05:32;8.80;;;4.82;;
69203;SDS011;56317;27.658;85.326;2023-09-30T08:07:59;9.38;;;4.30;;
69203;SDS011;56317;27.658;85.326;2023-09-30T08:10:29;11.73;;;4.93;;
69203;SDS011;56317;27.658;85.326;2023-09-30T08:13:01;9.00;;;5.10;;
69203;SDS011;56317;27.658;85.326;2023-09-30T08:15:32;11.15;;;5.63;;
69203;SDS011;56317;27.658;85.326;2023-09-30T08:18:04;13.27;;;5.82;;
69203;SDS011;56317;27.658;85.326;2023-09-30T08:20:35;13.10;;;6.28;;
69203;SDS011;56317;27.658;85.326;2023-09-30T08:23:04;11.57;;;6.40;;
69203;SDS011;56317;27.658;85.326;2023-09-30T08:25:32;14.35;;;6.80;;
69203;SDS011;56317;27.658;85.326;2023-09-30T08:28:00;14.63;;;6.72;;
69203;SDS011;56317;27.658;85.326;2023-09-30T08:30:27;12.52;;;5.70;;
69203;SDS011;56317;27.658;85.326;2023-09-30T08:32:56;12.73;;;6.68;;
69203;SDS011;56317;27.658;85.326;2023-09-30T08:35:26;21.52;;;8.00;;
69203;SDS011;56317;27.658;85.326;2023-09-30T08:37:53;16.23;;;7.35;;
69203;SDS011;56317;27.658;85.326;2023-09-30T08:40:21;16.85;;;7.35;;
69203;SDS011;56317;27.658;85.326;2023-09-30T08:45:20;17.85;;;8.27;;
69203;SDS011;56317;27.658;85.326;2023-09-30T08:47:52;23.25;;;8.93;;
69203;SDS011;56317;27.658;85.326;2023-09-30T08:50:20;13.80;;;7.28;;
69203;SDS011;56317;27.658;85.326;2023-09-30T08:55:18;15.40;;;7.22;;
69203;SDS011;56317;27.658;85.326;2023-09-30T08:57:46;17.13;;;7.95;;
69203;SDS011;56317;27.658;85.326;2023-09-30T09:00:14;19.13;;;8.10;;
69203;SDS011;56317;27.658;85.326;2023-09-30T09:02:43;19.02;;;8.10;;
69203;SDS011;56317;27.658;85.326;2023-09-30T09:05:11;18.45;;;9.40;;
69203;SDS011;56317;27.658;85.326;2023-09-30T09:07:39;19.17;;;8.75;;
69203;SDS011;56317;27.658;85.326;2023-09-30T09:10:09;12.77;;;5.55;;
69203;SDS011;56317;27.658;85.326;2023-09-30T09:12:39;12.85;;;5.57;;
69203;SDS011;56317;27.658;85.326;2023-09-30T09:15:19;11.80;;;6.15;;
69203;SDS011;56317;27.658;85.326;2023-09-30T09:17:47;12.57;;;6.70;;
69203;SDS011;56317;27.658;85.326;2023-09-30T09:20:17;12.48;;;6.78;;
69203;SDS011;56317;27.658;85.326;2023-09-30T09:22:49;12.23;;;6.47;;
69203;SDS011;56317;27.658;85.326;2023-09-30T09:25:22;11.80;;;5.20;;
69203;SDS011;56317;27.658;85.326;2023-09-30T09:27:53;8.77;;;3.97;;
69203;SDS011;56317;27.658;85.326;2023-09-30T09:30:26;11.20;;;3.92;;
69203;SDS011;56317;27.658;85.326;2023-09-30T09:33:01;8.52;;;4.00;;
69203;SDS011;56317;27.658;85.326;2023-09-30T09:35:33;6.80;;;3.70;;
69203;SDS011;56317;27.658;85.326;2023-09-30T09:38:02;7.53;;;3.70;;
69203;SDS011;56317;27.658;85.326;2023-09-30T09:40:37;7.32;;;2.97;;
69203;SDS011;56317;27.658;85.326;2023-09-30T09:43:06;6.57;;;3.10;;
69203;SDS011;56317;27.658;85.326;2023-09-30T09:45:35;6.63;;;3.33;;
69203;SDS011;56317;27.658;85.326;2023-09-30T09:48:05;9.57;;;4.00;;
69203;SDS011;56317;27.658;85.326;2023-09-30T09:50:35;11.00;;;3.43;;
69203;SDS011;56317;27.658;85.326;2023-09-30T09:53:04;7.70;;;3.67;;
69203;SDS011;56317;27.658;85.326;2023-09-30T09:55:34;11.60;;;3.58;;
69203;SDS011;56317;27.658;85.326;2023-09-30T09:58:04;8.93;;;3.75;;
69203;SDS011;56317;27.658;85.326;2023-09-30T10:00:37;9.43;;;3.75;;
69203;SDS011;56317;27.658;85.326;2023-09-30T10:03:07;6.85;;;3.50;;
69203;SDS011;56317;27.658;85.326;2023-09-30T10:05:35;6.70;;;2.83;;
69203;SDS011;56317;27.658;85.326;2023-09-30T10:08:08;9.80;;;2.58;;
69203;SDS011;56317;27.658;85.326;2023-09-30T10:10:44;6.65;;;2.25;;
69203;SDS011;56317;27.658;85.326;2023-09-30T10:19:23;5.55;;;2.30;;
69203;SDS011;56317;27.658;85.326;2023-09-30T10:24:52;6.40;;;2.63;;
69203;SDS011;56317;27.658;85.326;2023-09-30T10:27:33;8.15;;;2.38;;
69203;SDS011;56317;27.658;85.326;2023-09-30T10:40:52;5.60;;;2.50;;
69203;SDS011;56317;27.658;85.326;2023-09-30T10:49:16;6.63;;;3.40;;
69203;SDS011;56317;27.658;85.326;2023-09-30T10:51:55;6.25;;;2.60;;
69203;SDS011;56317;27.658;85.326;2023-09-30T10:54:32;5.75;;;3.05;;
69203;SDS011;56317;27.658;85.326;2023-09-30T10:57:04;8.50;;;3.20;;
69203;SDS011;56317;27.658;85.326;2023-09-30T10:59:43;6.78;;;3.40;;
69203;SDS011;56317;27.658;85.326;2023-09-30T11:02:21;11.48;;;3.05;;
69203;SDS011;56317;27.658;85.326;2023-09-30T11:04:57;9.80;;;2.63;;
69203;SDS011;56317;27.658;85.326;2023-09-30T11:07:57;5.78;;;2.55;;
69203;SDS011;56317;27.658;85.326;2023-09-30T11:10:37;7.60;;;3.08;;
69203;SDS011;56317;27.658;85.326;2023-09-30T11:13:17;18.02;;;8.38;;
69203;SDS011;56317;27.658;85.326;2023-09-30T11:16:01;24.10;;;9.77;;
69203;SDS011;56317;27.658;85.326;2023-09-30T11:18:36;22.80;;;9.88;;
69203;SDS011;56317;27.658;85.326;2023-09-30T11:21:11;11.52;;;5.85;;
69203;SDS011;56317;27.658;85.326;2023-09-30T11:23:44;10.02;;;4.43;;
69203;SDS011;56317;27.658;85.326;2023-09-30T11:26:22;8.00;;;3.50;;
69203;SDS011;56317;27.658;85.326;2023-09-30T11:31:45;9.85;;;3.95;;
69203;SDS011;56317;27.658;85.326;2023-09-30T11:34:14;11.23;;;4.57;;
69203;SDS011;56317;27.658;85.326;2023-09-30T11:39:25;10.18;;;4.63;;
69203;SDS011;56317;27.658;85.326;2023-09-30T11:41:54;13.93;;;6.20;;
69203;SDS011;56317;27.658;85.326;2023-09-30T11:44:23;18.40;;;6.45;;
69203;SDS011;56317;27.658;85.326;2023-09-30T11:46:56;16.95;;;7.57;;
69203;SDS011;56317;27.658;85.326;2023-09-30T11:49:39;18.65;;;7.35;;
69203;SDS011;56317;27.658;85.326;2023-09-30T11:52:15;19.55;;;8.10;;
69203;SDS011;56317;27.658;85.326;2023-09-30T11:54:43;18.73;;;7.72;;
69203;SDS011;56317;27.658;85.326;2023-09-30T11:57:12;15.80;;;6.63;;
69203;SDS011;56317;27.658;85.326;2023-09-30T11:59:44;13.52;;;6.40;;
69203;SDS011;56317;27.658;85.326;2023-09-30T12:02:12;14.50;;;6.35;;
69203;SDS011;56317;27.658;85.326;2023-09-30T12:04:43;12.88;;;6.63;;
69203;SDS011;56317;27.658;85.326;2023-09-30T12:07:12;17.92;;;7.30;;
69203;SDS011;56317;27.658;85.326;2023-09-30T12:09:40;13.35;;;6.90;;
69203;SDS011;56317;27.658;85.326;2023-09-30T12:12:08;17.17;;;6.13;;
69203;SDS011;56317;27.658;85.326;2023-09-30T12:14:36;12.07;;;5.85;;
69203;SDS011;56317;27.658;85.326;2023-09-30T12:17:03;19.15;;;8.75;;
69203;SDS011;56317;27.658;85.326;2023-09-30T12:19:30;17.88;;;8.50;;
69203;SDS011;56317;27.658;85.326;2023-09-30T12:21:58;14.45;;;6.88;;
69203;SDS011;56317;27.658;85.326;2023-09-30T12:24:25;17.17;;;8.07;;
69203;SDS011;56317;27.658;85.326;2023-09-30T12:26:52;16.65;;;6.88;;
69203;SDS011;56317;27.658;85.326;2023-09-30T12:29:20;15.00;;;6.70;;
69203;SDS011;56317;27.658;85.326;2023-09-30T12:31:49;17.73;;;6.57;;
69203;SDS011;56317;27.658;85.326;2023-09-30T12:34:17;14.05;;;7.00;;
69203;SDS011;56317;27.658;85.326;2023-09-30T12:36:45;22.08;;;9.98;;
69203;SDS011;56317;27.658;85.326;2023-09-30T12:39:13;20.17;;;9.57;;
69203;SDS011;56317;27.658;85.326;2023-09-30T12:41:42;20.60;;;9.82;;
69203;SDS011;56317;27.658;85.326;2023-09-30T12:44:10;16.08;;;7.78;;
69203;SDS011;56317;27.658;85.326;2023-09-30T12:46:37;18.38;;;8.05;;
69203;SDS011;56317;27.658;85.326;2023-09-30T12:49:07;14.43;;;7.97;;
69203;SDS011;56317;27.658;85.326;2023-09-30T12:51:35;21.40;;;8.65;;
69203;SDS011;56317;27.658;85.326;2023-09-30T12:54:03;19.30;;;9.55;;
69203;SDS011;56317;27.658;85.326;2023-09-30T12:56:30;15.63;;;7.57;;
69203;SDS011;56317;27.658;85.326;2023-09-30T12:58:58;13.45;;;7.40;;
69203;SDS011;56317;27.658;85.326;2023-09-30T13:01:26;19.15;;;8.25;;
69203;SDS011;56317;27.658;85.326;2023-09-30T13:03:57;22.15;;;9.43;;
69203;SDS011;56317;27.658;85.326;2023-09-30T13:06:24;16.60;;;8.18;;
69203;SDS011;56317;27.658;85.326;2023-09-30T13:08:51;18.25;;;8.27;;
69203;SDS011;56317;27.658;85.326;2023-09-30T13:11:18;18.70;;;8.15;;
69203;SDS011;56317;27.658;85.326;2023-09-30T13:13:45;21.00;;;7.75;;
69203;SDS011;56317;27.658;85.326;2023-09-30T13:16:12;22.90;;;8.25;;
69203;SDS011;56317;27.658;85.326;2023-09-30T13:18:40;17.92;;;7.68;;
69203;SDS011;56317;27.658;85.326;2023-09-30T13:21:07;14.90;;;7.88;;
69203;SDS011;56317;27.658;85.326;2023-09-30T13:23:37;18.63;;;7.18;;
69203;SDS011;56317;27.658;85.326;2023-09-30T13:26:04;16.92;;;7.80;;
69203;SDS011;56317;27.658;85.326;2023-09-30T13:28:31;18.13;;;8.88;;
69203;SDS011;56317;27.658;85.326;2023-09-30T13:30:59;20.33;;;9.32;;
69203;SDS011;56317;27.658;85.326;2023-09-30T13:33:26;22.38;;;9.75;;
69203;SDS011;56317;27.658;85.326;2023-09-30T13:35:53;24.27;;;8.73;;
69203;SDS011;56317;27.658;85.326;2023-09-30T13:38:21;22.83;;;10.13;;
69203;SDS011;56317;27.658;85.326;2023-09-30T13:40:49;18.73;;;9.02;;
69203;SDS011;56317;27.658;85.326;2023-09-30T13:43:16;20.88;;;9.50;;
69203;SDS011;56317;27.658;85.326;2023-09-30T13:45:43;24.23;;;11.77;;
69203;SDS011;56317;27.658;85.326;2023-09-30T13:48:10;21.77;;;11.05;;
69203;SDS011;56317;27.658;85.326;2023-09-30T13:50:37;22.88;;;11.48;;
69203;SDS011;56317;27.658;85.326;2023-09-30T13:53:05;31.77;;;12.63;;
69203;SDS011;56317;27.658;85.326;2023-09-30T13:55:32;22.85;;;11.57;;
69203;SDS011;56317;27.658;85.326;2023-09-30T13:58:03;27.85;;;12.70;;
69203;SDS011;56317;27.658;85.326;2023-09-30T14:00:30;27.27;;;13.68;;
69203;SDS011;56317;27.658;85.326;2023-09-30T14:02:59;25.35;;;12.82;;
69203;SDS011;56317;27.658;85.326;2023-09-30T14:05:26;28.98;;;13.45;;
69203;SDS011;56317;27.658;85.326;2023-09-30T14:07:53;28.25;;;13.07;;
69203;SDS011;56317;27.658;85.326;2023-09-30T14:10:20;27.05;;;12.13;;
69203;SDS011;56317;27.658;85.326;2023-09-30T14:12:48;30.48;;;12.25;;
69203;SDS011;56317;27.658;85.326;2023-09-30T14:15:15;33.80;;;15.10;;
69203;SDS011;56317;27.658;85.326;2023-09-30T14:17:43;29.00;;;14.23;;
69203;SDS011;56317;27.658;85.326;2023-09-30T14:20:10;28.55;;;13.95;;
69203;SDS011;56317;27.658;85.326;2023-09-30T14:22:41;30.73;;;13.80;;
69203;SDS011;56317;27.658;85.326;2023-09-30T14:25:08;35.55;;;15.05;;
69203;SDS011;56317;27.658;85.326;2023-09-30T14:27:36;31.13;;;13.70;;
69203;SDS011;56317;27.658;85.326;2023-09-30T14:30:03;29.27;;;14.15;;
69203;SDS011;56317;27.658;85.326;2023-09-30T14:32:31;28.33;;;15.20;;
69203;SDS011;56317;27.658;85.326;2023-09-30T14:34:58;26.52;;;13.50;;
69203;SDS011;56317;27.658;85.326;2023-09-30T14:37:25;27.25;;;14.30;;
69203;SDS011;56317;27.658;85.326;2023-09-30T14:39:54;22.90;;;12.38;;
69203;SDS011;56317;27.658;85.326;2023-09-30T14:42:22;30.08;;;13.60;;
69203;SDS011;56317;27.658;85.326;2023-09-30T14:44:49;32.72;;;14.15;;
69203;SDS011;56317;27.658;85.326;2023-09-30T14:47:16;37.20;;;14.73;;
69203;SDS011;56317;27.658;85.326;2023-09-30T14:49:44;33.95;;;15.93;;
69203;SDS011;56317;27.658;85.326;2023-09-30T14:52:11;34.95;;;15.15;;
69203;SDS011;56317;27.658;85.326;2023-09-30T14:54:39;29.38;;;14.13;;
69203;SDS011;56317;27.658;85.326;2023-09-30T14:57:06;26.33;;;14.38;;
69203;SDS011;56317;27.658;85.326;2023-09-30T14:59:35;33.35;;;15.48;;
69203;SDS011;56317;27.658;85.326;2023-09-30T15:02:02;32.22;;;16.83;;
69203;SDS011;56317;27.658;85.326;2023-09-30T15:04:29;32.50;;;14.75;;